createdAt,value
2022-08-31T01:04:48.562Z,3.08
2022-08-31T01:34:46.340Z,3.50
2022-08-31T01:42:00.021Z,3.45
2022-08-31T01:45:01.484Z,3.20
2022-08-31T01:51:04.758Z,3.55
2022-08-31T01:53:48.769Z,3.42
2022-08-31T02:00:20.090Z,3.45
2022-08-31T02:15:14.703Z,3.60
2022-08-31T02:18:54.285Z,3.28
2022-08-31T02:25:01.337Z,3.65
2022-08-31T02:28:22.469Z,3.83
2022-08-31T02:31:28.894Z,4.13
2022-08-31T02:37:31.946Z,3.50
2022-08-31T02:40:49.867Z,3.58
2022-08-31T02:43:40.115Z,3.53
2022-08-31T02:47:13.708Z,3.58
2022-08-31T02:57:30.194Z,3.53
2022-08-31T03:00:51.808Z,3.53
2022-08-31T03:18:11.025Z,3.22
2022-08-31T03:20:57.169Z,3.10
2022-08-31T03:36:05.895Z,3.30
2022-08-31T03:44:15.053Z,3.00
2022-08-31T04:02:36.834Z,3.70
2022-08-31T04:05:36.107Z,3.17
2022-08-31T04:22:08.688Z,3.17
2022-08-31T04:24:43.675Z,2.90
2022-08-31T04:27:15.689Z,3.10
2022-08-31T04:30:07.587Z,2.90
2022-08-31T04:32:58.274Z,2.78
2022-08-31T04:35:42.647Z,2.95
2022-08-31T04:38:25.734Z,2.90
2022-08-31T04:41:05.510Z,2.80
2022-08-31T04:43:42.659Z,2.92
2022-08-31T04:46:15.182Z,2.97
2022-08-31T04:48:55.152Z,2.95
2022-08-31T04:51:33.524Z,2.70
2022-08-31T04:54:06.787Z,3.03
2022-08-31T04:56:40.578Z,2.90
2022-08-31T04:59:18.416Z,3.20
2022-08-31T05:01:53.492Z,3.13
2022-08-31T05:04:26.484Z,2.83
2022-08-31T05:07:00.620Z,2.80
2022-08-31T05:09:32.694Z,3.28
2022-08-31T05:12:21.238Z,3.08
2022-08-31T05:14:53.897Z,3.20
2022-08-31T05:17:30.750Z,2.60
2022-08-31T05:20:01.284Z,3.20
2022-08-31T05:22:31.715Z,3.00
2022-08-31T05:25:07.114Z,2.80
2022-08-31T05:27:36.261Z,2.80
2022-08-31T05:30:06.529Z,2.78
2022-08-31T05:32:34.789Z,2.80
2022-08-31T05:35:10.515Z,2.83
2022-08-31T05:37:51.893Z,2.88
2022-08-31T05:40:22.847Z,2.58
2022-08-31T05:42:51.739Z,2.88
2022-08-31T05:45:24.157Z,2.65
2022-08-31T05:47:53.262Z,2.40
2022-08-31T05:53:37.323Z,2.80
2022-08-31T05:56:10.993Z,2.63
2022-08-31T05:58:42.217Z,2.50
2022-08-31T06:01:17.694Z,2.55
2022-08-31T06:03:49.186Z,2.72
2022-08-31T06:06:18.271Z,2.50
2022-08-31T06:08:52.117Z,2.55
2022-08-31T06:11:32.300Z,2.40
2022-08-31T06:14:12.326Z,2.10
2022-08-31T06:16:48.887Z,2.20
2022-08-31T06:19:22.615Z,1.80
2022-08-31T06:21:57.285Z,2.08
2022-08-31T06:24:26.780Z,2.03
2022-08-31T06:27:03.991Z,1.77
2022-08-31T06:29:32.889Z,2.00
2022-08-31T06:32:10.471Z,1.80
2022-08-31T06:34:39.989Z,1.75
2022-08-31T06:37:18.313Z,1.80
2022-08-31T06:39:47.849Z,1.98
2022-08-31T06:42:17.751Z,1.50
2022-08-31T06:44:46.369Z,1.67
2022-08-31T06:47:15.459Z,1.90
2022-08-31T06:49:43.663Z,1.40
2022-08-31T06:52:12.282Z,1.70
2022-08-31T06:54:40.879Z,1.50
2022-08-31T06:57:09.135Z,1.73
2022-08-31T06:59:41.143Z,1.25
2022-08-31T07:02:09.730Z,1.30
2022-08-31T07:04:40.929Z,1.70
2022-08-31T07:07:11.450Z,1.42
2022-08-31T07:09:41.206Z,1.40
2022-08-31T07:12:10.374Z,1.60
2022-08-31T07:14:50.158Z,1.40
2022-08-31T07:17:23.390Z,1.60
2022-08-31T07:19:52.173Z,1.60
2022-08-31T07:22:20.402Z,1.58
2022-08-31T07:24:48.601Z,1.52
2022-08-31T07:27:18.422Z,1.40
2022-08-31T07:29:48.072Z,1.33
2022-08-31T07:32:17.478Z,1.60
2022-08-31T07:34:45.910Z,1.60
2022-08-31T07:37:31.660Z,1.30
2022-08-31T07:40:17.661Z,1.40
2022-08-31T07:42:47.751Z,1.65
2022-08-31T07:45:25.792Z,1.70
2022-08-31T07:47:59.805Z,1.70
2022-08-31T07:50:31.584Z,1.73
2022-08-31T07:53:00.507Z,1.77
2022-08-31T07:55:30.189Z,1.45
2022-08-31T07:57:59.025Z,1.40
2022-08-31T08:00:33.096Z,1.40
2022-08-31T08:03:07.496Z,1.60
2022-08-31T08:05:41.566Z,1.40
2022-08-31T08:08:13.974Z,1.40
2022-08-31T08:10:52.738Z,1.45
2022-08-31T08:13:22.586Z,1.75
2022-08-31T08:15:52.665Z,1.58
2022-08-31T08:18:21.620Z,1.38
2022-08-31T08:20:52.622Z,1.55
2022-08-31T08:23:27.773Z,1.52
2022-08-31T08:25:57.668Z,1.40
2022-08-31T08:28:39.267Z,1.58
2022-08-31T08:31:14.999Z,1.60
2022-08-31T08:33:44.031Z,1.65
2022-08-31T08:36:18.423Z,1.55
2022-08-31T08:38:51.884Z,1.40
2022-08-31T08:41:23.294Z,1.60
2022-08-31T08:43:57.154Z,1.58
2022-08-31T08:46:35.284Z,1.38
2022-08-31T08:49:16.250Z,1.77
2022-08-31T08:51:44.965Z,1.77
2022-08-31T08:54:25.036Z,1.85
2022-08-31T08:56:53.322Z,1.85
2022-08-31T08:59:21.676Z,1.65
2022-08-31T09:01:57.968Z,1.95
2022-08-31T09:04:41.504Z,1.90
2022-08-31T09:07:31.139Z,1.50
2022-08-31T09:10:07.215Z,1.70
2022-08-31T09:12:45.118Z,1.85
2022-08-31T09:15:57.959Z,1.77
2022-08-31T09:18:46.769Z,1.90
2022-08-31T09:21:23.680Z,1.70
2022-08-31T09:24:02.382Z,1.83
2022-08-31T09:26:35.736Z,1.90
2022-08-31T09:29:05.260Z,2.00
2022-08-31T09:31:38.588Z,1.88
2022-08-31T09:34:28.483Z,1.83
2022-08-31T09:37:16.426Z,1.90
2022-08-31T09:39:48.530Z,1.75
2022-08-31T09:42:31.245Z,1.65
2022-08-31T09:45:05.810Z,1.90
2022-08-31T09:47:48.500Z,1.70
2022-08-31T09:50:33.572Z,1.90
2022-08-31T09:53:38.992Z,2.05
2022-08-31T09:56:14.394Z,1.60
2022-08-31T09:58:48.881Z,2.35
2022-08-31T10:01:25.896Z,1.90
2022-08-31T10:04:18.285Z,1.98
2022-08-31T10:06:56.569Z,2.10
2022-08-31T10:09:37.224Z,1.85
2022-08-31T10:12:10.385Z,2.05
2022-08-31T10:14:44.628Z,2.13
2022-08-31T10:17:26.197Z,2.47
2022-08-31T10:20:07.694Z,1.85
2022-08-31T10:22:43.132Z,2.20
2022-08-31T10:25:26.840Z,1.83
2022-08-31T10:28:08.598Z,1.98
2022-08-31T10:30:46.387Z,1.63
2022-08-31T10:33:22.033Z,1.90
2022-08-31T10:35:57.523Z,1.95
2022-08-31T10:38:35.824Z,1.90
2022-08-31T10:41:13.048Z,1.60
2022-08-31T10:43:49.028Z,1.95
2022-08-31T10:46:18.679Z,1.50
2022-08-31T10:48:53.191Z,1.85
2022-08-31T10:51:30.115Z,1.73
2022-08-31T10:54:22.007Z,1.90
2022-08-31T10:57:00.758Z,1.70
2022-08-31T10:59:38.441Z,1.90
2022-08-31T11:02:45.433Z,1.73
2022-08-31T11:05:30.143Z,1.60
2022-08-31T11:08:17.818Z,2.00
2022-08-31T11:10:51.871Z,1.70
2022-08-31T11:13:51.875Z,1.67
2022-08-31T11:16:46.509Z,1.77
2022-08-31T11:20:01.188Z,1.85
2022-08-31T11:23:19.065Z,1.92
2022-08-31T11:26:35.129Z,1.60
2022-08-31T11:29:13.289Z,1.60
2022-08-31T11:31:42.794Z,1.60
2022-08-31T11:34:17.515Z,1.80
2022-08-31T11:36:51.090Z,1.60
2022-08-31T11:39:43.049Z,2.15
2022-08-31T11:43:01.169Z,1.90
2022-08-31T11:45:33.055Z,2.08
2022-08-31T11:48:02.473Z,2.03
2022-08-31T11:51:07.221Z,1.70
2022-08-31T11:53:44.264Z,1.90
2022-08-31T11:56:15.215Z,1.60
2022-08-31T11:58:46.923Z,1.48
2022-08-31T12:01:44.044Z,1.67
2022-08-31T12:04:57.583Z,1.80
2022-08-31T12:07:30.629Z,1.90
2022-08-31T12:10:30.890Z,1.85
2022-08-31T12:13:34.114Z,2.10
2022-08-31T12:16:43.870Z,2.40
2022-08-31T12:20:02.678Z,2.00
2022-08-31T12:23:28.960Z,1.60
2022-08-31T12:26:24.892Z,1.75
2022-08-31T12:29:19.929Z,1.73
2022-08-31T12:32:26.722Z,1.58
2022-08-31T12:35:05.484Z,1.88
2022-08-31T12:37:37.480Z,1.70
2022-08-31T12:40:28.192Z,1.52
2022-08-31T12:43:05.465Z,2.05
2022-08-31T12:46:04.566Z,1.80
2022-08-31T12:49:25.043Z,1.73
2022-08-31T12:52:03.589Z,1.55
2022-08-31T12:55:09.231Z,1.70
2022-08-31T12:57:51.525Z,1.60
2022-08-31T13:00:27.459Z,2.05
2022-08-31T13:03:00.924Z,1.80
2022-08-31T13:05:33.453Z,1.58
2022-08-31T13:08:01.898Z,2.25
2022-08-31T13:10:34.692Z,1.95
2022-08-31T13:13:07.272Z,1.98
2022-08-31T13:15:40.609Z,1.90
2022-08-31T13:18:13.146Z,1.85
2022-08-31T13:20:44.386Z,1.60
2022-08-31T13:23:18.068Z,1.60
2022-08-31T13:25:51.996Z,1.80
2022-08-31T13:28:31.549Z,1.83
2022-08-31T13:31:05.346Z,1.70
2022-08-31T13:33:40.830Z,2.22
2022-08-31T13:36:31.884Z,2.00
2022-08-31T13:39:03.350Z,2.13
2022-08-31T13:41:36.145Z,1.60
2022-08-31T13:44:08.946Z,1.98
2022-08-31T13:46:43.887Z,2.38
2022-08-31T13:49:32.513Z,1.88
2022-08-31T13:52:03.834Z,2.08
2022-08-31T13:54:34.869Z,1.88
2022-08-31T13:57:22.917Z,1.90
2022-08-31T13:59:51.361Z,2.00
2022-08-31T14:02:39.600Z,1.83
2022-08-31T14:05:10.406Z,1.85
2022-08-31T14:08:02.363Z,2.05
2022-08-31T14:10:37.351Z,2.00
2022-08-31T14:13:13.879Z,1.60
2022-08-31T14:15:50.351Z,1.90
2022-08-31T14:18:26.080Z,2.10
2022-08-31T14:21:21.855Z,2.10
2022-08-31T14:23:54.916Z,1.63
2022-08-31T14:26:26.319Z,1.67
2022-08-31T14:28:58.551Z,1.58
2022-08-31T14:31:33.914Z,1.85
2022-08-31T14:34:15.116Z,1.92
2022-08-31T14:36:50.364Z,1.73
2022-08-31T14:39:21.678Z,1.55
2022-08-31T14:41:50.536Z,1.67
2022-08-31T14:44:22.657Z,1.70
2022-08-31T14:46:50.921Z,1.60
2022-08-31T14:49:19.238Z,1.80
2022-08-31T14:51:47.530Z,1.60
2022-08-31T14:54:17.129Z,1.90
2022-08-31T14:56:50.932Z,1.67
2022-08-31T14:59:22.201Z,2.08
2022-08-31T15:01:51.468Z,1.90
2022-08-31T15:04:22.177Z,1.63
2022-08-31T15:06:56.713Z,1.73
2022-08-31T15:09:24.883Z,1.98
2022-08-31T15:11:55.161Z,1.75
2022-08-31T15:14:23.758Z,2.00
2022-08-31T15:16:52.034Z,2.00
2022-08-31T15:19:23.167Z,1.90
2022-08-31T15:21:58.621Z,2.08
2022-08-31T15:24:31.715Z,1.63
2022-08-31T15:27:01.447Z,2.10
2022-08-31T15:29:30.347Z,1.95
2022-08-31T15:31:59.817Z,1.70
2022-08-31T15:34:31.365Z,1.73
2022-08-31T15:37:02.789Z,1.83
2022-08-31T15:39:35.526Z,1.90
2022-08-31T15:42:09.373Z,1.92
2022-08-31T15:44:38.335Z,1.95
2022-08-31T15:47:25.961Z,1.90
2022-08-31T15:49:55.909Z,2.15
2022-08-31T15:52:27.880Z,1.80
2022-08-31T15:54:57.138Z,2.00
2022-08-31T15:57:27.998Z,1.58
2022-08-31T15:59:58.116Z,2.00
2022-08-31T16:02:26.462Z,1.85
2022-08-31T16:04:57.771Z,1.77
2022-08-31T16:07:26.913Z,1.80
2022-08-31T16:09:55.323Z,1.60
2022-08-31T16:12:23.613Z,1.63
2022-08-31T16:14:55.102Z,1.70
2022-08-31T16:17:23.390Z,1.88
2022-08-31T16:19:51.915Z,1.48
2022-08-31T16:22:22.451Z,1.70
2022-08-31T16:24:57.380Z,1.67
2022-08-31T16:27:25.628Z,1.60
2022-08-31T16:29:55.330Z,2.28
2022-08-31T16:32:26.708Z,1.83
2022-08-31T16:34:56.830Z,2.08
2022-08-31T16:37:25.163Z,1.80
2022-08-31T16:39:53.841Z,1.90
2022-08-31T16:42:22.227Z,2.03
2022-08-31T16:44:50.628Z,2.30
2022-08-31T16:47:21.996Z,1.80
2022-08-31T16:49:50.073Z,2.20
2022-08-31T16:52:21.512Z,1.85
2022-08-31T16:54:53.211Z,1.67
2022-08-31T16:57:26.350Z,1.77
2022-08-31T16:59:56.501Z,1.83
2022-08-31T17:02:27.199Z,1.90
2022-08-31T17:04:56.574Z,1.60
2022-08-31T17:07:25.901Z,1.85
2022-08-31T17:09:57.759Z,1.90
2022-08-31T17:12:27.323Z,1.90
2022-08-31T17:14:56.046Z,1.50
2022-08-31T17:17:27.687Z,1.65
2022-08-31T17:19:57.439Z,1.50
2022-08-31T17:22:32.612Z,1.70
2022-08-31T17:25:04.932Z,1.45
2022-08-31T17:27:51.395Z,1.45
2022-08-31T17:30:20.859Z,1.45
2022-08-31T17:32:50.703Z,1.33
2022-08-31T17:35:19.412Z,1.40
2022-08-31T17:37:51.675Z,1.50
2022-08-31T17:40:21.012Z,1.38
2022-08-31T17:42:52.966Z,1.60
2022-08-31T17:45:23.529Z,1.30
2022-08-31T17:47:54.911Z,1.67
2022-08-31T17:50:30.199Z,1.30
2022-08-31T17:53:00.565Z,1.50
2022-08-31T17:55:31.096Z,1.45
2022-08-31T17:57:59.579Z,1.20
2022-08-31T18:00:32.994Z,1.70
2022-08-31T18:03:02.709Z,1.23
2022-08-31T18:05:31.345Z,1.40
2022-08-31T18:07:59.649Z,1.60
2022-08-31T18:10:28.056Z,1.10
2022-08-31T18:12:56.373Z,1.30
2022-08-31T18:15:24.647Z,1.35
2022-08-31T18:17:53.061Z,1.92
2022-08-31T18:20:23.798Z,1.65
2022-08-31T18:26:03.283Z,1.35
2022-08-31T18:28:32.193Z,1.27
2022-08-31T18:31:44.758Z,1.27
2022-08-31T18:46:12.955Z,1.63
2022-08-31T18:49:01.144Z,1.58
2022-08-31T18:51:50.555Z,1.52
2022-08-31T18:54:59.450Z,1.20
2022-08-31T18:57:46.327Z,1.65
2022-08-31T19:00:33.389Z,1.50
2022-08-31T19:03:03.988Z,1.30
2022-08-31T19:05:34.730Z,1.50
2022-08-31T19:08:04.595Z,1.42
2022-08-31T19:10:34.841Z,1.50
2022-08-31T19:13:32.297Z,1.38
2022-08-31T19:16:05.551Z,1.70
2022-08-31T19:22:26.318Z,1.60
2022-08-31T19:25:49.933Z,1.52
2022-08-31T19:32:27.364Z,1.83
2022-08-31T19:35:39.649Z,1.50
2022-08-31T19:38:08.596Z,1.60
2022-08-31T19:41:25.010Z,1.52
2022-08-31T19:44:11.052Z,1.80
2022-08-31T19:46:54.576Z,1.60
2022-08-31T19:49:31.109Z,1.92
2022-08-31T19:52:13.105Z,1.40
2022-08-31T19:57:34.149Z,1.40
2022-08-31T20:00:03.658Z,1.60
2022-08-31T20:02:39.585Z,1.90
2022-08-31T20:05:17.106Z,1.48
2022-08-31T21:59:37.003Z,1.50
